National Weather Service United States Department of Commerce

 

Aviation Weather Center TAFs Radar Soundings/Model Data Soaring
NWS Wichita Home Page Hazardous Weather Outlook NWS Graphical Forecasts

 

Wichita (ICT)
Hutchinson (HUT)
Tactical Decision Aid
 
Tactical Decision Aid
 

 
000
FTUS43 KICT 151727
TAFICT
TAF
KICT 151727Z 1518/1618 03010KT P6SM SCT025 BKN250
FM161200 03007KT P6SM BKN040=
 
000
FTUS43 KICT 151727
TAFHUT
TAF
KHUT 151727Z 1518/1618 02008KT P6SM FEW020 OVC025
FM151900 01008KT P6SM SCT070
FM161200 04005KT P6SM BKN030
FM161400 07005KT P6SM BKN090=
Salina (SLN) Russell (RSL)
Tactical Decision Aid
Tactical Decision Aid

 
000
FTUS43 KICT 151727
TAFSLN
TAF
KSLN 151727Z 1518/1618 32008KT P6SM BKN020 BKN025 OVC035
FM151900 01008KT P6SM SCT020 SCT050
FM160700 03004KT P6SM SCT080
FM161200 06005KT P6SM BKN080=

 
000
FTUS43 KICT 151727
TAFRSL
TAF
KRSL 151727Z 1518/1618 36009KT P6SM OVC020
FM152100 01009KT P6SM SCT030 BKN040
FM160000 04007KT P6SM BKN110
FM161000 VRB04KT P6SM SCT008
FM161200 15007KT P6SM BKN020=
Chanute (CNU) Great Bend (GBD)
Tactical Decision Aid
Tactical Decision Aid

 
000
FTUS43 KICT 151727
TAFCNU
TAF
KCNU 151727Z 1518/1618 35007KT P6SM FEW035 FEW100
FM152100 36008KT P6SM SCT040 SCT100
FM160000 03007KT P6SM SCT250=

 
000
FTUS43 KICT 151727
TAFGBD
TAF
KGBD 151727Z 1518/1618 01009KT P6SM OVC015
FM152200 02009KT P6SM SCT020 SCT060
FM160500 06006KT P6SM BKN140
FM161200 12006KT P6SM OVC020
FM161300 12006KT P6SM BKN060=
 
NWS Wichita Aviation Forecast Discussion

 

 

IMPORTANT: This page is a tool to help pilots better visualize weather and weather-related hazards, and is not a substitute for a weather briefing obtained from a Flight Service Station (1-800-WXBRIEF). The information contained here does not meet the FAA requirements for a pre-flight weather brief. Therefore, it is important that pilots call and obtain a briefing from an FAA Flight Service Specialist.